Aérodrome :
LOGIN :

S'inscrire | Disclaimer

   EN    FR    IT 

 










Légende :    VFR   VFR Marginal   IFR   IFR Intensif   IFR Très Intensif
Visi : 
Plafond : 
>= 8 km
>= 3000ft
5 à 8 km
1000 à 3000 ft
1500m à 5 km
500 à 1000 ft
800 à 1500m
200 à 500 ft
< 800m
< 200 ft
Symboles :   Orages  Brouillard  Fortes neiges  Fortes précipitations  Vent > 20 kt
SIGMETs :   Divers  Orages  Givrage  Turbulence  Onde Orograph.  Cendres Volcan.







- Altitude de l'aérodrome : 424 ft
- Code IATA : QGY


LHPR - Györ Per

DERNIER METAR :
  • 280615Z 15010KT 130V190 CAVOK 27/19 Q1005 RMK BLU

METARs EXPIRÉS :
  • 280545Z 16010KT CAVOK 26/18 Q1005 RMK BLU
  • 280515Z 15008KT CAVOK 24/18 Q1006 RMK BLU
  • 280445Z 15007KT CAVOK 23/18 Q1006 RMK BLU
  • 280415Z AUTO 15005KT 110V170 CAVOK 20/18 Q1006 RMK BLU
  • 280345Z AUTO 13006KT CAVOK 19/17 Q1005 RMK BLU

TAF TAF LHPR
Valide du 28 à 06h jusqu'au 28 à 15h UTC


280515Z 2806/2815 15007KT CAVOK
BECMG 2806/2809 18010KT
BECMG 2809/2812 19015G28KT
TEMPO 2810/2815 SCT045TCU SCT130
PROB30
TEMPO 2812/2815 VRB30G40KT 4000 SHRA TSRA BKN040CB
Pas de NOTAMs connus pour ce terrain.



MET'MAP, la Météo Aéronautique d'un coup d'oeil ! - Copyright ORBIFLY Décembre 2007 - Disclaimer

ORBIFLY MET'MAP TEAM :

Programmation & Développement : Alexandra Zaïnal
Conception & Développement : Baudouin d'Aumeries
Co-Programmation & Développement : Marc-Olivier Méhu
Soutien technique & logistique : Manuel Goepfert

Contact : metmap@orbifly.com




SOURCES & CREDITS :

   NOAA